KCBE/CBE METAR and TAF weather

Enter ICAO airport designator
Station Type Date Time Source
KCBE METAR 2020/04/10 19:20 UTC NOAA

KCBE 101920Z AUTO 27010G29KT 240V320 10SM BKN050 BKN060 07/M05 A2984 RMK AO2 T00661048


Station Type Date Time Source
KCBE Decoded METAR 2020/04/10 19:20 UTC NOAA

Cumberland, Greater Cumberland Regional Airport, MD, United States (KCBE) 39-36-55N 078-45-39W
Apr 10, 2020 - 03:20 PM EDT / 2020.04.10 1920 UTC
Wind: from the W (270 degrees) at 12 MPH (10 KT) gusting to 33 MPH (29 KT) (direction variable):0
Visibility: 10 mile(s):0
Sky conditions: mostly cloudy
Temperature: 43.9 F (6.6 C)
Dew Point: 23.4 F (-4.8 C)
Relative Humidity: 43%
Pressure (altimeter): 29.84 in. Hg (1010 hPa)
ob: KCBE 101920Z AUTO 27010G29KT 240V320 10SM BKN050 BKN060 07/M05 A2984 RMK AO2 T00661048
cycle: 19

Station Type Date Time Source
KCBE TAF UTC NOAA

Error!

Example: see airport list